Time;durP1;ratioP1;P1;durP2;ratioP2;P2;SDS_P1;SDS_P2;PMS_P1;PMS_P2;Temp;Humidity;BMP_temperature;BMP_pressure;BME280_temperature;BME280_humidity;BME280_pressure;Samples;Min_cycle;Max_cycle;Signal;HPM_P1;HPM_P2
2021/08/15 00:00:50;;;;;;;;;6.00;5.00;;;;;21.61;52.00;100954.69;5015152;28;45258;-61
2021/08/15 00:03:16;;;;;;;;;5.25;4.00;;;;;21.60;52.20;100955.72;5016415;28;46805;-61
2021/08/15 00:05:41;;;;;;;;;6.25;4.00;;;;;21.58;52.34;100949.75;5015601;28;65905;-60
2021/08/15 00:08:07;;;;;;;;;4.00;4.00;;;;;21.56;51.80;100948.31;5016561;28;45615;-61
2021/08/15 00:10:33;;;;;;;;;3.00;3.00;;;;;21.50;52.28;100945.41;5016360;28;45229;-61
2021/08/15 00:12:59;;;;;;;;;5.75;4.75;;;;;21.47;52.13;100945.81;5015777;28;45262;-61
2021/08/15 00:15:24;;;;;;;;;5.00;3.00;;;;;21.43;51.76;100941.88;5015543;28;66150;-60
2021/08/15 00:17:49;;;;;;;;;5.75;4.75;;;;;21.40;51.89;100944.13;5015606;28;68408;-61
2021/08/15 00:20:15;;;;;;;;;6.00;6.00;;;;;21.36;52.06;100941.00;5016060;28;54871;-61
2021/08/15 00:22:41;;;;;;;;;6.75;5.00;;;;;21.33;52.73;100933.38;5015558;28;62623;-61
2021/08/15 00:25:07;;;;;;;;;5.25;4.00;;;;;21.34;52.56;100929.69;5015883;28;45327;-61
2021/08/15 00:27:32;;;;;;;;;4.00;4.00;;;;;21.32;52.24;100932.56;5016320;28;45448;-61
2021/08/15 00:29:58;;;;;;;;;4.75;3.50;;;;;21.32;52.16;100934.41;5015433;28;64454;-61
2021/08/15 00:32:23;;;;;;;;;3.25;3.00;;;;;21.29;51.97;100930.31;5015198;28;66949;-60
2021/08/15 00:34:49;;;;;;;;;7.00;5.00;;;;;21.27;52.44;100926.16;5015719;28;45383;-60
2021/08/15 00:37:14;;;;;;;;;6.50;4.25;;;;;21.25;52.71;100925.53;5015363;28;65146;-60
2021/08/15 00:39:39;;;;;;;;;5.00;5.00;;;;;21.24;52.97;100921.22;5015085;28;69334;-61
2021/08/15 00:42:05;;;;;;;;;6.75;5.00;;;;;21.23;52.85;100923.06;5015944;28;45455;-61
2021/08/15 00:44:30;;;;;;;;;5.25;4.00;;;;;21.22;52.84;100923.25;5031402;28;45383;-61
2021/08/15 00:46:56;;;;;;;;;4.00;4.00;;;;;21.19;52.36;100922.66;5016307;28;45379;-61
2021/08/15 00:49:22;;;;;;;;;5.25;3.50;;;;;21.15;52.51;100917.88;4998526;28;45431;-61
2021/08/15 00:51:47;;;;;;;;;4.25;3.00;;;;;21.12;53.28;100923.63;5014890;28;71604;-60
2021/08/15 00:54:12;;;;;;;;;4.25;4.25;;;;;21.09;52.74;100924.84;5014803;28;72694;-61
2021/08/15 00:56:38;;;;;;;;;4.00;4.00;;;;;21.08;53.04;100919.69;5016864;28;65733;-61
2021/08/15 00:59:04;;;;;;;;;4.50;3.75;;;;;21.04;53.23;100924.59;5017399;28;64746;-61
2021/08/15 01:01:32;;;;;;;;;3.75;3.50;;;;;21.02;53.02;100922.13;5017531;28;46163;-60
2021/08/15 01:03:57;;;;;;;;;7.75;5.00;;;;;20.99;53.32;100917.16;5001458;28;50883;-61
2021/08/15 01:06:22;;;;;;;;;3.75;3.50;;;;;20.99;53.21;100916.34;5019318;28;45279;-61
2021/08/15 01:08:48;;;;;;;;;3.75;3.75;;;;;20.98;53.53;100920.84;5018777;28;55298;-61
2021/08/15 01:11:13;;;;;;;;;6.50;4.00;;;;;20.99;53.38;100916.34;5018007;28;75481;-59
2021/08/15 01:13:39;;;;;;;;;6.00;5.00;;;;;20.97;53.58;100915.72;5018249;28;68858;-61
2021/08/15 01:16:04;;;;;;;;;8.00;5.00;;;;;20.93;53.82;100915.28;5019227;28;45827;-61
2021/08/15 01:18:31;;;;;;;;;5.00;5.00;;;;;20.89;53.71;100912.19;5018079;28;69302;-61
2021/08/15 01:20:57;;;;;;;;;7.00;4.00;;;;;20.86;53.69;100917.91;5018865;28;46382;-61
2021/08/15 01:23:22;;;;;;;;;3.50;3.50;;;;;20.83;53.60;100915.63;5019007;28;45893;-60
2021/08/15 01:25:48;;;;;;;;;5.00;4.25;;;;;20.81;53.82;100911.53;5018937;28;45732;-60
2021/08/15 01:28:15;;;;;;;;;6.50;4.75;;;;;20.79;53.55;100905.53;5017939;28;69128;-60
2021/08/15 01:30:41;;;;;;;;;3.00;3.00;;;;;20.79;53.53;100903.69;5017299;28;50834;-61
2021/08/15 01:33:09;;;;;;;;;4.00;4.00;;;;;20.80;53.82;100904.53;5016854;28;64491;-60
2021/08/15 01:35:34;;;;;;;;;6.00;4.00;;;;;20.78;53.40;100896.69;5018846;28;45347;-60
2021/08/15 01:38:00;;;;;;;;;5.00;4.25;;;;;20.75;53.45;100902.38;5017890;28;70409;-61
2021/08/15 01:40:25;;;;;;;;;5.50;5.25;;;;;20.72;53.40;100892.09;5017910;28;67576;-61
2021/08/15 01:42:50;;;;;;;;;6.75;5.25;;;;;20.69;53.26;100897.81;5018459;28;48958;-60
2021/08/15 01:45:16;;;;;;;;;4.50;4.25;;;;;20.65;53.71;100900.06;5017767;28;67502;-60
2021/08/15 01:47:41;;;;;;;;;5.75;5.00;;;;;20.61;53.48;100899.66;5017536;28;70440;-61
2021/08/15 01:50:07;;;;;;;;;5.00;5.00;;;;;20.59;53.78;100907.03;5018421;28;46010;-60
2021/08/15 01:52:32;;;;;;;;;6.75;5.00;;;;;20.58;54.13;100904.53;5018503;28;45299;-61
2021/08/15 01:54:58;;;;;;;;;5.75;4.00;;;;;20.57;53.94;100901.06;5017621;28;69121;-61
2021/08/15 01:57:23;;;;;;;;;3.50;3.50;;;;;20.56;53.99;100899.41;5018613;28;45236;-60
2021/08/15 01:59:48;;;;;;;;;5.00;5.00;;;;;20.53;54.13;100888.25;5016982;28;75366;-61
2021/08/15 02:02:14;;;;;;;;;3.75;2.75;;;;;20.49;53.89;100892.34;5017369;28;72102;-60
2021/08/15 02:04:39;;;;;;;;;6.00;4.50;;;;;20.46;54.20;100888.22;5017551;28;69325;-61
2021/08/15 02:07:05;;;;;;;;;5.00;4.00;;;;;20.44;53.96;100887.59;5018310;28;45463;-60
2021/08/15 02:09:30;;;;;;;;;2.00;2.00;;;;;20.41;53.92;100877.28;5018180;28;46877;-61
2021/08/15 02:11:56;;;;;;;;;5.00;5.00;;;;;20.38;54.38;100881.19;5018088;28;45355;-61
2021/08/15 02:14:21;;;;;;;;;5.50;4.00;;;;;20.36;54.39;100883.22;5018406;28;45496;-60
2021/08/15 02:16:47;;;;;;;;;5.50;4.25;;;;;20.35;54.64;100878.91;5018022;28;47342;-60
2021/08/15 02:19:12;;;;;;;;;5.50;4.75;;;;;20.35;54.34;100880.72;5017189;28;67971;-60
2021/08/15 02:21:38;;;;;;;;;4.50;4.50;;;;;20.36;54.44;100874.38;5017129;28;69454;-60
2021/08/15 02:24:04;;;;;;;;;5.75;5.00;;;;;20.35;54.37;100875.41;5018167;28;45346;-60
2021/08/15 02:26:29;;;;;;;;;6.25;5.00;;;;;20.34;54.12;100868.41;5018027;28;45404;-61
2021/08/15 02:28:55;;;;;;;;;5.25;5.00;;;;;20.30;54.38;100866.13;5016889;28;74872;-61
2021/08/15 02:31:20;;;;;;;;;5.00;4.00;;;;;20.28;54.60;100865.50;5017011;28;67933;-60
2021/08/15 02:33:45;;;;;;;;;6.00;5.25;;;;;20.26;55.01;100864.84;5017160;28;62703;-61
2021/08/15 02:36:11;;;;;;;;;6.75;6.00;;;;;20.24;54.89;100853.56;5016928;28;65832;-61
2021/08/15 02:38:36;;;;;;;;;8.75;6.75;;;;;20.24;55.17;100850.06;5017384;28;58896;-60
2021/08/15 02:41:03;;;;;;;;;5.50;5.25;;;;;20.23;55.12;100851.91;5016879;28;64428;-61
2021/08/15 02:43:28;;;;;;;;;6.25;5.00;;;;;20.21;55.53;100848.59;5017835;28;45178;-61
2021/08/15 02:45:54;;;;;;;;;5.50;5.50;;;;;20.19;55.57;100852.50;5017249;28;57107;-61
2021/08/15 02:48:19;;;;;;;;;7.25;3.00;;;;;20.15;55.37;100852.03;5017163;28;45303;-59
2021/08/15 02:50:44;;;;;;;;;6.00;5.25;;;;;20.13;55.16;100854.09;5017444;28;45399;-61
2021/08/15 02:53:10;;;;;;;;;4.00;4.00;;;;;20.09;55.51;100848.31;5017253;28;56648;-61
2021/08/15 02:55:35;;;;;;;;;11.75;8.75;;;;;20.07;55.61;100837.00;5016601;28;70652;-61
2021/08/15 02:58:01;;;;;;;;;5.75;4.25;;;;;20.07;55.56;100836.19;5016910;28;63759;-60
2021/08/15 03:00:26;;;;;;;;;6.00;6.00;;;;;20.06;55.36;100835.34;5017170;28;45319;-61
2021/08/15 03:02:51;;;;;;;;;7.00;7.00;;;;;20.06;55.43;100834.53;5015592;28;56069;-61
2021/08/15 03:05:19;;;;;;;;;6.75;6.00;;;;;20.04;55.93;100823.22;5016786;28;60965;-60
2021/08/15 03:07:44;;;;;;;;;5.25;5.25;;;;;20.05;55.96;100824.88;5017280;28;45539;-60
2021/08/15 03:10:10;;;;;;;;;6.00;6.00;;;;;20.04;55.86;100825.91;5016451;28;68182;-60
2021/08/15 03:12:35;;;;;;;;;6.75;6.00;;;;;20.02;55.69;100818.06;5017142;28;46972;-61
2021/08/15 03:15:01;;;;;;;;;6.00;6.00;;;;;20.02;56.01;100818.91;5017279;28;45515;-61
2021/08/15 03:17:26;;;;;;;;;8.00;6.25;;;;;20.00;55.87;100820.94;5017005;28;45400;-60
2021/08/15 03:19:52;;;;;;;;;5.00;5.00;;;;;19.96;56.18;100819.69;5015692;28;69955;-59
2021/08/15 03:22:17;;;;;;;;;7.00;5.00;;;;;19.95;56.37;100815.34;5016370;28;66617;-60
2021/08/15 03:24:42;;;;;;;;;7.25;6.00;;;;;19.94;56.35;100818.19;5016029;28;70428;-59
2021/08/15 03:27:08;;;;;;;;;6.50;6.50;;;;;19.91;56.55;100811.41;5015663;28;46115;-60
2021/08/15 03:29:33;;;;;;;;;7.00;4.75;;;;;19.87;56.43;100810.13;5015482;28;53541;-61
2021/08/15 03:31:58;;;;;;;;;6.25;6.00;;;;;19.84;56.66;100814.00;5017002;28;45298;-60
2021/08/15 03:34:24;;;;;;;;;7.75;5.25;;;;;19.83;56.56;100808.84;5017157;28;45561;-60
2021/08/15 03:36:49;;;;;;;;;7.00;5.25;;;;;19.81;56.65;100801.06;5016763;28;45308;-61
2021/08/15 03:39:15;;;;;;;;;8.25;5.50;;;;;19.78;56.52;100801.44;5016864;28;45271;-60
2021/08/15 03:41:40;;;;;;;;;5.50;5.00;;;;;19.75;56.39;100800.97;5016922;28;45257;-61
2021/08/15 03:44:06;;;;;;;;;6.00;5.25;;;;;19.73;56.59;100811.84;5015935;28;67052;-61
2021/08/15 03:46:31;;;;;;;;;9.75;5.75;;;;;19.71;56.74;100804.00;5015645;28;74350;-60
2021/08/15 03:48:56;;;;;;;;;6.00;4.75;;;;;19.69;56.89;100803.38;5015928;28;65148;-60
2021/08/15 03:51:22;;;;;;;;;9.25;6.25;;;;;19.68;56.70;100801.72;5016005;28;61603;-60
2021/08/15 03:53:47;;;;;;;;;8.00;7.00;;;;;19.64;56.60;100805.78;5016373;28;51346;-59
2021/08/15 03:56:13;;;;;;;;;6.00;5.50;;;;;19.61;56.85;100806.16;5015530;28;68952;-60
2021/08/15 03:58:38;;;;;;;;;5.25;5.25;;;;;19.60;57.27;100807.22;5016504;28;46570;-61
2021/08/15 04:01:03;;;;;;;;;7.00;5.00;;;;;19.60;57.01;100811.69;5015467;28;69342;-60
2021/08/15 04:03:29;;;;;;;;;8.00;7.00;;;;;19.58;57.04;100810.03;5016776;28;45633;-60
2021/08/15 04:05:59;;;;;;;;;5.75;4.00;;;;;19.58;57.13;100801.25;5015431;28;75480;-60
2021/08/15 04:08:26;;;;;;;;;6.00;5.00;;;;;19.54;57.50;100800.78;5016926;28;45376;-60
2021/08/15 04:10:51;;;;;;;;;5.25;4.00;;;;;19.50;57.40;100804.03;5016674;28;45352;-60
2021/08/15 04:13:16;;;;;;;;;5.75;5.00;;;;;19.47;57.52;100804.41;5015529;28;67610;-60
2021/08/15 04:15:42;;;;;;;;;4.50;4.25;;;;;19.43;57.58;100799.44;5016406;28;45430;-61
2021/08/15 04:18:07;;;;;;;;;6.00;5.00;;;;;19.39;57.49;100797.31;5016284;28;45335;-61
2021/08/15 04:20:33;;;;;;;;;6.25;5.75;;;;;19.38;57.85;100793.00;5015408;28;67131;-61
2021/08/15 04:22:58;;;;;;;;;8.25;5.75;;;;;19.37;57.98;100799.34;5015452;28;66708;-60
2021/08/15 04:25:23;;;;;;;;;8.00;6.00;;;;;19.35;57.65;100796.88;5016146;28;45927;-60
2021/08/15 04:27:49;;;;;;;;;8.75;6.25;;;;;19.32;57.81;100799.09;5015326;28;69047;-60
2021/08/15 04:30:14;;;;;;;;;12.00;8.25;;;;;19.31;57.87;100794.78;5016316;28;45335;-60
2021/08/15 04:32:39;;;;;;;;;9.25;7.00;;;;;19.32;57.73;100791.13;5018838;28;62485;-59
2021/08/15 04:35:05;;;;;;;;;6.00;5.00;;;;;19.30;58.14;100785.97;5018479;28;46073;-60
2021/08/15 04:37:31;;;;;;;;;7.50;6.00;;;;;19.30;58.07;100783.31;5019582;28;45353;-61
2021/08/15 04:39:56;;;;;;;;;9.75;4.00;;;;;19.27;58.17;100783.66;5018477;28;45362;-60
2021/08/15 04:42:21;;;;;;;;;16.50;11.75;;;;;19.25;57.92;100780.38;5018774;28;68611;-59
2021/08/15 04:44:47;;;;;;;;;8.75;4.75;;;;;19.26;58.13;100779.34;5018691;28;68175;-60
2021/08/15 04:47:12;;;;;;;;;12.75;8.00;;;;;19.23;57.98;100779.72;5018519;28;71703;-61
2021/08/15 04:49:38;;;;;;;;;9.00;5.25;;;;;19.22;58.36;100778.06;5019794;28;45332;-61
2021/08/15 04:52:03;;;;;;;;;6.00;5.00;;;;;19.23;58.17;100785.91;5019308;28;46397;-61
2021/08/15 04:54:29;;;;;;;;;5.25;3.00;;;;;19.23;57.98;100780.56;5019410;28;46153;-61
2021/08/15 04:56:55;;;;;;;;;7.00;4.25;;;;;19.25;58.31;100778.53;5019312;28;45324;-60
2021/08/15 04:59:20;;;;;;;;;4.75;4.75;;;;;19.24;58.35;100779.56;5019398;28;45415;-60
2021/08/15 05:01:46;;;;;;;;;10.75;4.00;;;;;19.25;58.41;100778.53;5019244;28;45506;-61
2021/08/15 05:04:11;;;;;;;;;5.75;4.75;;;;;19.27;58.34;100778.34;5018427;28;67343;-61
2021/08/15 05:06:36;;;;;;;;;5.75;4.00;;;;;19.26;58.61;100776.69;5018126;28;72101;-60
2021/08/15 05:09:02;;;;;;;;;5.00;4.75;;;;;19.26;58.35;100782.03;5019353;28;45304;-60
2021/08/15 05:11:28;;;;;;;;;5.25;4.00;;;;;19.23;58.55;100777.91;5019230;28;45369;-59
2021/08/15 05:13:53;;;;;;;;;5.25;5.00;;;;;19.26;58.38;100774.03;5018000;28;63229;-61
2021/08/15 05:16:18;;;;;;;;;5.50;4.25;;;;;19.26;58.44;100774.88;5019150;28;45461;-60
2021/08/15 05:18:44;;;;;;;;;6.75;4.00;;;;;19.27;58.26;100775.69;5018751;28;51591;-60
2021/08/15 05:21:09;;;;;;;;;5.75;4.50;;;;;19.28;58.22;100777.34;5018373;28;62405;-60
2021/08/15 05:23:35;;;;;;;;;6.00;5.00;;;;;19.33;58.27;100785.59;5018921;28;46081;-60
2021/08/15 05:26:00;;;;;;;;;6.00;5.00;;;;;19.34;58.10;100779.25;5018018;28;68993;-60
2021/08/15 05:28:25;;;;;;;;;4.00;4.00;;;;;19.35;58.25;100780.91;5018070;28;69286;-60
2021/08/15 05:30:51;;;;;;;;;5.00;5.00;;;;;19.36;58.09;100765.72;5018074;28;54069;-60
2021/08/15 05:33:16;;;;;;;;;4.25;4.25;;;;;19.38;58.14;100775.19;5017835;28;72647;-60
2021/08/15 05:35:42;;;;;;;;;5.75;4.00;;;;;19.38;58.41;100771.69;5018588;28;48721;-60
2021/08/15 05:38:07;;;;;;;;;6.00;4.25;;;;;19.41;58.25;100771.31;5017764;28;67969;-60
2021/08/15 05:40:32;;;;;;;;;4.00;4.00;;;;;19.45;58.37;100780.59;5017821;28;67321;-59
2021/08/15 05:42:58;;;;;;;;;5.00;5.00;;;;;19.49;58.53;100773.06;5018086;28;45891;-60
2021/08/15 05:45:23;;;;;;;;;5.75;4.00;;;;;19.52;58.38;100772.69;5018667;28;45232;-60
2021/08/15 05:47:49;;;;;;;;;6.50;6.25;;;;;19.58;58.38;100780.72;5018544;28;45855;-60
2021/08/15 05:50:14;;;;;;;;;5.50;5.50;;;;;19.66;58.53;100777.09;5018821;28;45523;-60
2021/08/15 05:52:39;;;;;;;;;6.50;4.00;;;;;19.75;58.32;100769.81;5017544;28;71994;-61
2021/08/15 05:55:05;;;;;;;;;8.00;4.75;;;;;19.85;58.36;100770.31;5017589;28;68181;-61
2021/08/15 05:57:31;;;;;;;;;4.75;4.75;;;;;19.93;58.29;100777.38;5018577;28;45240;-60
2021/08/15 05:59:57;;;;;;;;;2.75;2.00;;;;;20.01;58.36;100779.09;5017006;28;45392;-60
2021/08/15 06:02:22;;;;;;;;;6.00;4.00;;;;;20.08;58.45;100785.31;5018074;28;54574;-61
2021/08/15 06:04:47;;;;;;;;;7.25;4.25;;;;;20.17;58.43;100776.13;5017353;28;71715;-60
2021/08/15 06:07:13;;;;;;;;;5.50;4.75;;;;;20.27;58.17;100778.47;5017504;28;64170;-61
2021/08/15 06:09:39;;;;;;;;;7.50;5.00;;;;;20.34;58.09;100781.19;5018305;28;45454;-61
2021/08/15 06:12:05;;;;;;;;;8.25;5.50;;;;;20.47;57.77;100783.13;5017348;28;69734;-60
2021/08/15 06:14:31;;;;;;;;;4.25;3.25;;;;;20.57;57.73;100780.09;5018089;28;45444;-60
2021/08/15 06:16:57;;;;;;;;;4.75;4.00;;;;;20.67;57.74;100777.88;5018381;28;45320;-59
2021/08/15 06:19:22;;;;;;;;;4.25;3.25;;;;;20.78;57.27;100773.84;5017513;28;60945;-61
2021/08/15 06:21:47;;;;;;;;;6.00;6.00;;;;;20.89;57.06;100772.50;5016787;28;75774;-60
2021/08/15 06:24:13;;;;;;;;;14.50;12.75;;;;;21.00;57.32;100771.91;5017142;28;73160;-61
2021/08/15 06:26:38;;;;;;;;;5.00;5.00;;;;;21.13;56.44;100781.00;5017090;28;62400;-60
2021/08/15 06:29:04;;;;;;;;;5.00;4.75;;;;;21.26;56.56;100773.03;5017172;28;66174;-61
2021/08/15 06:31:29;;;;;;;;;6.25;6.25;;;;;21.38;55.83;100781.28;5017359;28;45275;-60
2021/08/15 06:33:54;;;;;;;;;5.00;5.00;;;;;21.50;55.75;100784.16;5017156;28;65314;-61
2021/08/15 06:36:20;;;;;;;;;5.00;5.00;;;;;21.63;56.24;100770.06;5017993;28;45530;-61
2021/08/15 06:38:45;;;;;;;;;4.25;4.25;;;;;21.74;55.30;100772.09;5017593;28;46068;-61
2021/08/15 06:41:11;;;;;;;;;5.00;5.00;;;;;21.87;55.48;100773.13;5016935;28;67468;-61
2021/08/15 06:43:36;;;;;;;;;9.00;5.00;;;;;21.98;55.22;100782.41;5016708;28;73153;-61
2021/08/15 06:46:01;;;;;;;;;6.00;4.00;;;;;22.08;55.07;100780.13;5015701;28;65883;-60
2021/08/15 06:48:27;;;;;;;;;5.75;5.75;;;;;22.19;54.36;100774.16;5017826;28;45215;-61
2021/08/15 06:50:54;;;;;;;;;6.75;4.00;;;;;22.32;54.17;100764.47;5016414;28;73538;-60
2021/08/15 06:53:21;;;;;;;;;4.00;4.00;;;;;22.43;54.08;100768.34;5016713;28;45795;-61
2021/08/15 06:55:47;;;;;;;;;5.75;3.50;;;;;22.55;53.81;100772.06;5017397;28;45446;-61
2021/08/15 06:58:12;;;;;;;;;5.00;5.00;;;;;22.67;53.31;100766.88;5017522;28;45457;-60
2021/08/15 07:00:37;;;;;;;;;5.50;5.00;;;;;22.76;53.22;100762.94;5016198;28;75572;-60
2021/08/15 07:03:03;;;;;;;;;5.00;4.50;;;;;22.86;52.63;100767.84;5016527;28;72477;-61
2021/08/15 07:05:28;;;;;;;;;6.25;4.25;;;;;22.97;52.65;100769.03;5016775;28;60312;-61
2021/08/15 07:07:54;;;;;;;;;6.50;6.00;;;;;23.08;52.73;100764.88;5017144;28;45380;-60
2021/08/15 07:10:19;;;;;;;;;10.50;6.00;;;;;23.18;51.70;100767.91;5016914;28;45394;-62
2021/08/15 07:12:44;;;;;;;;;6.00;6.00;;;;;23.27;52.17;100768.50;5017162;28;45419;-61
2021/08/15 07:15:10;;;;;;;;;6.75;5.75;;;;;23.36;51.05;100769.91;5017348;28;45259;-61
2021/08/15 07:17:36;;;;;;;;;6.50;3.50;;;;;23.44;50.75;100770.69;5015978;28;45620;-61
2021/08/15 07:20:04;;;;;;;;;7.75;6.00;;;;;23.52;50.20;100771.22;5016832;28;45355;-60
2021/08/15 07:22:29;;;;;;;;;5.75;5.75;;;;;23.60;49.99;100783.53;5015795;28;45763;-61
2021/08/15 07:24:55;;;;;;;;;6.25;5.50;;;;;23.70;50.10;100783.09;5016403;28;62153;-59
2021/08/15 07:27:21;;;;;;;;;7.75;6.00;;;;;23.77;50.02;100788.38;5016900;28;45464;-61
2021/08/15 07:29:46;;;;;;;;;10.00;7.00;;;;;23.89;49.71;100778.59;5015770;28;75473;-62
2021/08/15 07:32:12;;;;;;;;;9.75;8.00;;;;;23.96;48.46;100765.13;5016698;28;45340;-61
2021/08/15 07:34:37;;;;;;;;;8.75;8.75;;;;;24.06;48.34;100776.22;5016141;28;64216;-62
2021/08/15 07:37:02;;;;;;;;;7.50;7.25;;;;;24.13;47.88;100771.59;5015693;28;69898;-61
2021/08/15 07:39:28;;;;;;;;;10.75;6.50;;;;;24.19;47.91;100775.25;5016519;28;50810;-60
2021/08/15 07:41:53;;;;;;;;;7.25;4.50;;;;;24.31;47.61;100778.06;5015633;28;71834;-62
2021/08/15 07:44:19;;;;;;;;;9.25;6.00;;;;;24.44;47.01;100777.91;5015820;28;66173;-61
2021/08/15 07:46:44;;;;;;;;;8.50;7.25;;;;;24.60;46.83;100771.13;5016607;28;45320;-60
2021/08/15 07:49:09;;;;;;;;;7.50;7.50;;;;;24.76;46.86;100776.97;5015572;28;56006;-61
2021/08/15 07:51:35;;;;;;;;;9.00;7.00;;;;;24.93;46.43;100779.06;5015726;28;64026;-61
2021/08/15 07:54:00;;;;;;;;;7.75;5.75;;;;;25.13;46.05;100770.72;5015863;28;63529;-62
2021/08/15 07:56:25;;;;;;;;;6.00;6.00;;;;;25.33;45.73;100779.34;5015849;28;66751;-62
2021/08/15 07:58:51;;;;;;;;;7.25;7.25;;;;;25.51;44.99;100774.97;5015744;28;66050;-62
2021/08/15 08:01:17;;;;;;;;;9.25;5.75;;;;;25.67;44.90;100769.97;5015056;28;73107;-62
2021/08/15 08:03:42;;;;;;;;;6.75;6.00;;;;;25.87;44.63;100778.56;5016674;28;45371;-63
2021/08/15 08:06:07;;;;;;;;;8.75;6.75;;;;;26.05;44.85;100768.72;5016543;28;45631;-62
2021/08/15 08:08:33;;;;;;;;;8.00;7.00;;;;;26.21;44.61;100773.44;5015301;28;75466;-62
2021/08/15 08:10:58;;;;;;;;;6.75;6.75;;;;;26.36;43.94;100766.75;5016347;28;45303;-62
2021/08/15 08:13:24;;;;;;;;;8.00;6.00;;;;;26.56;43.90;100769.06;5016433;28;45368;-61
2021/08/15 08:15:49;;;;;;;;;8.75;6.00;;;;;26.72;43.65;100766.69;5016467;28;45307;-62
2021/08/15 08:18:15;;;;;;;;;6.75;6.75;;;;;26.88;43.46;100763.25;5016263;28;46038;-62
2021/08/15 08:20:40;;;;;;;;;6.00;5.50;;;;;27.03;42.89;100762.72;5015323;28;67829;-62
2021/08/15 08:23:07;;;;;;;;;7.50;6.50;;;;;27.22;43.65;100754.44;5016295;28;45285;-63
2021/08/15 08:25:32;;;;;;;;;8.00;7.00;;;;;27.37;42.95;100751.19;5016212;28;45295;-62
2021/08/15 08:27:58;;;;;;;;;8.00;6.00;;;;;27.49;42.16;100756.56;5015673;28;45353;-62
2021/08/15 08:30:23;;;;;;;;;9.00;5.75;;;;;27.62;42.12;100756.22;5016185;28;45237;-62
2021/08/15 08:32:49;;;;;;;;;6.00;5.75;;;;;27.77;41.40;100754.81;5013975;28;65212;-62
2021/08/15 08:35:14;;;;;;;;;10.50;7.00;;;;;27.94;41.61;100760.22;5015660;28;59111;-62
2021/08/15 08:37:39;;;;;;;;;9.00;7.50;;;;;28.03;40.86;100749.81;5016027;28;46811;-63
2021/08/15 08:40:05;;;;;;;;;6.00;6.00;;;;;28.09;41.40;100748.81;5015213;28;66890;-62
2021/08/15 08:42:31;;;;;;;;;6.00;6.00;;;;;28.15;40.37;100755.94;5015856;28;46525;-62
2021/08/15 08:45:00;;;;;;;;;11.00;7.75;;;;;28.25;40.40;100748.00;5016077;28;45424;-61
2021/08/15 08:47:26;;;;;;;;;6.00;5.50;;;;;28.38;40.42;100748.69;5015666;28;46040;-62
2021/08/15 08:49:52;;;;;;;;;9.25;8.75;;;;;28.54;40.49;100750.53;5017764;28;45336;-60
2021/08/15 08:52:17;;;;;;;;;7.75;7.50;;;;;28.73;40.78;100752.91;5014071;28;57944;-61
2021/08/15 08:54:42;;;;;;;;;8.75;6.00;;;;;28.86;40.05;100747.13;4997355;28;66270;-63
2021/08/15 08:57:08;;;;;;;;;7.50;6.50;;;;;29.02;39.52;100742.69;5015815;28;45231;-62
2021/08/15 08:59:37;;;;;;;;;6.75;6.75;;;;;29.17;39.95;100750.13;5014612;28;70451;-60
2021/08/15 09:02:03;;;;;;;;;8.00;5.25;;;;;29.32;39.10;100745.94;5015873;28;45352;-63
2021/08/15 09:04:28;;;;;;;;;6.25;6.25;;;;;29.48;40.03;100757.75;5015800;28;45304;-63
2021/08/15 09:06:54;;;;;;;;;8.00;5.75;;;;;29.60;40.93;100752.97;5013277;28;75508;-63
2021/08/15 09:09:20;;;;;;;;;8.75;6.75;;;;;29.68;38.78;100748.16;5014619;28;70997;-61
2021/08/15 09:11:47;;;;;;;;;11.50;9.50;;;;;29.76;38.20;100750.41;5015671;28;45304;-62
2021/08/15 09:14:14;;;;;;;;;11.25;9.00;;;;;29.82;38.27;100745.81;5015682;28;45431;-60
2021/08/15 09:16:58;;;;;;;;;13.50;8.25;;;;;29.87;37.54;100743.16;5014633;28;46423;-62
2021/08/15 09:19:35;;;;;;;;;6.75;6.75;;;;;29.87;37.50;100740.44;5018929;28;45369;-62
2021/08/15 09:22:20;;;;;;;;;10.25;9.00;;;;;29.90;37.69;100731.78;5018847;28;45229;-62
2021/08/15 09:24:51;;;;;;;;;8.75;8.75;;;;;29.93;36.97;100733.97;5018942;28;45221;-62
2021/08/15 09:27:31;;;;;;;;;8.25;8.25;;;;;30.02;37.15;100726.19;5018739;28;45495;-61
2021/08/15 09:30:06;;;;;;;;;8.25;8.25;;;;;30.16;37.04;100724.66;5018915;28;45178;-62
2021/08/15 09:32:31;;;;;;;;;9.25;8.25;;;;;30.27;37.20;100722.81;5018667;28;45362;-62
2021/08/15 09:34:58;;;;;;;;;7.75;6.25;;;;;30.35;37.40;100719.59;5016663;28;70687;-61
2021/08/15 09:37:26;;;;;;;;;8.50;6.50;;;;;30.43;37.58;100717.44;5018045;28;45403;-62
2021/08/15 09:39:51;;;;;;;;;9.75;9.25;;;;;30.49;37.05;100713.69;5001183;28;45957;-63
2021/08/15 09:42:17;;;;;;;;;10.75;8.25;;;;;30.52;36.62;100715.03;5018372;28;45319;-62
2021/08/15 09:44:42;;;;;;;;;13.00;11.00;;;;;30.59;36.40;100713.75;5017512;28;69739;-62
2021/08/15 09:47:09;;;;;;;;;8.50;8.00;;;;;30.71;36.67;100716.22;5017378;28;75237;-62
2021/08/15 09:49:36;;;;;;;;;11.00;9.75;;;;;30.83;36.83;100710.53;5018308;28;45256;-62
2021/08/15 09:52:02;;;;;;;;;10.00;10.00;;;;;30.94;36.78;100714.09;5018487;28;45454;-63
2021/08/15 09:54:27;;;;;;;;;12.25;10.25;;;;;31.08;36.11;100709.75;5018594;28;45494;-63
2021/08/15 09:56:55;;;;;;;;;10.75;8.75;;;;;31.16;36.05;100711.16;5017409;28;68792;-61
2021/08/15 09:59:21;;;;;;;;;9.25;7.50;;;;;31.25;36.34;100713.34;5001549;28;45364;-62
2021/08/15 10:01:53;;;;;;;;;13.00;10.75;;;;;31.29;36.19;100706.25;5017947;28;45294;-61
2021/08/15 10:04:19;;;;;;;;;9.00;8.00;;;;;31.34;36.55;100703.53;5018406;28;46120;-62
2021/08/15 10:06:50;;;;;;;;;10.50;8.50;;;;;31.36;36.46;100704.09;5018098;28;45309;-62
2021/08/15 10:09:16;;;;;;;;;9.00;8.25;;;;;31.42;36.75;100703.00;5018377;28;45320;-63
2021/08/15 10:11:41;;;;;;;;;9.25;8.00;;;;;31.51;36.60;100701.38;5017750;28;49444;-63
2021/08/15 10:14:08;;;;;;;;;8.25;8.25;;;;;31.62;36.64;100701.38;5018089;28;45641;-61
2021/08/15 10:16:37;;;;;;;;;9.25;8.75;;;;;31.76;36.45;100696.19;5017856;28;45443;-63
2021/08/15 10:19:06;;;;;;;;;11.75;10.75;;;;;31.94;36.45;100697.50;5000534;28;45384;-62
2021/08/15 10:21:31;;;;;;;;;7.50;7.50;;;;;32.09;36.91;100686.59;5000549;28;45272;-63
2021/08/15 10:24:07;;;;;;;;;9.25;6.00;;;;;32.23;36.88;100684.06;4999470;28;70120;-63
2021/08/15 10:26:35;;;;;;;;;13.00;9.25;;;;;32.38;36.45;100677.78;5017916;28;45385;-63
2021/08/15 10:29:01;;;;;;;;;11.75;10.25;;;;;32.52;35.88;100680.72;5016653;28;45817;-64
2021/08/15 10:32:05;;;;;;;;;13.00;11.25;;;;;32.62;36.54;100671.66;5017022;28;69991;-62
2021/08/15 10:34:48;;;;;;;;;10.00;9.50;;;;;32.67;36.60;100670.81;5018008;28;45352;-62
2021/08/15 10:37:22;;;;;;;;;13.50;10.75;;;;;32.71;36.27;100667.25;5017731;28;45297;-62
2021/08/15 10:39:48;;;;;;;;;12.25;12.00;;;;;32.80;36.40;100669.38;5017765;28;45313;-63
2021/08/15 10:42:39;;;;;;;;;12.75;11.50;;;;;32.87;35.35;100664.44;5017327;28;47059;-63
2021/08/15 10:45:07;;;;;;;;;12.50;12.00;;;;;32.96;35.17;100657.28;5017396;28;45401;-62
2021/08/15 10:47:33;;;;;;;;;10.50;10.50;;;;;33.09;34.95;100658.56;5017489;28;47140;-62
2021/08/15 10:50:02;;;;;;;;;13.25;10.50;;;;;33.23;34.89;100656.00;5017694;28;45819;-61
2021/08/15 10:52:34;;;;;;;;;13.75;11.75;;;;;33.39;33.94;100648.50;5017436;28;45350;-63
2021/08/15 10:54:59;;;;;;;;;11.25;11.25;;;;;33.56;33.89;100641.81;5032311;28;45335;-62
2021/08/15 10:57:37;;;;;;;;;12.00;10.25;;;;;33.71;33.49;100649.78;5017111;28;45463;-62
2021/08/15 11:00:31;;;;;;;;;14.75;12.75;;;;;33.76;33.06;100648.13;5016968;28;45444;-63
2021/08/15 11:03:09;;;;;;;;;15.75;12.00;;;;;33.79;32.66;100650.25;5016988;28;45424;-62
2021/08/15 11:05:35;;;;;;;;;9.50;9.50;;;;;33.83;32.71;100643.13;5015965;28;45299;-61
2021/08/15 11:08:01;;;;;;;;;12.75;11.50;;;;;33.87;32.60;100634.09;5016884;28;45287;-62
2021/08/15 11:10:26;;;;;;;;;12.25;11.50;;;;;33.92;32.78;100630.53;5016215;28;70499;-63
2021/08/15 11:13:14;;;;;;;;;12.75;11.75;;;;;33.98;32.27;100631.25;4998761;28;64732;-62
2021/08/15 11:15:40;;;;;;;;;13.75;12.25;;;;;34.04;32.53;100624.63;5016665;28;45379;-62
2021/08/15 11:18:10;;;;;;;;;19.25;17.00;;;;;34.06;32.34;100622.44;4998455;28;65217;-63
2021/08/15 11:20:49;;;;;;;;;12.75;11.50;;;;;34.06;31.88;100616.97;5016863;28;45894;-63